createdAt,value
2019-06-20T00:02:03.667Z,25.65
2019-06-20T00:04:33.990Z,26.42
2019-06-20T00:07:04.522Z,25.88
2019-06-20T00:09:34.842Z,24.87
2019-06-20T00:12:05.166Z,25.32
2019-06-20T00:14:35.495Z,26.05
2019-06-20T00:17:06.023Z,26.33
2019-06-20T00:19:36.551Z,26.02
2019-06-20T00:22:06.885Z,25.45
2019-06-20T00:24:37.193Z,25.57
2019-06-20T00:27:07.520Z,26.07
2019-06-20T00:29:37.846Z,26.27
2019-06-20T00:32:08.371Z,26.55
2019-06-20T00:34:38.696Z,26.65
2019-06-20T00:37:09.230Z,27.50
2019-06-20T00:39:39.547Z,25.35
2019-06-20T00:42:10.712Z,27.20
2019-06-20T00:44:41.017Z,25.92
2019-06-20T00:47:11.327Z,25.17
2019-06-20T00:49:41.670Z,27.40
2019-06-20T00:52:11.989Z,26.48
2019-06-20T00:54:42.313Z,26.50
2019-06-20T00:57:12.844Z,25.75
2019-06-20T00:59:43.368Z,26.15
2019-06-20T01:02:13.691Z,27.25
2019-06-20T01:04:44.223Z,26.95
2019-06-20T01:07:14.547Z,26.93
2019-06-20T01:09:45.272Z,25.72
2019-06-20T01:12:15.606Z,26.65
2019-06-20T01:14:45.826Z,27.70
2019-06-20T01:17:16.866Z,27.37
2019-06-20T01:19:46.681Z,28.40
2019-06-20T01:22:16.541Z,27.52
2019-06-20T01:24:46.573Z,28.77
2019-06-20T01:27:16.482Z,26.85
2019-06-20T01:29:46.371Z,27.65
2019-06-20T01:32:16.418Z,28.12
2019-06-20T01:34:47.080Z,29.00
2019-06-20T01:37:17.026Z,30.02
2019-06-20T01:39:46.989Z,28.67
2019-06-20T01:42:16.839Z,29.40
2019-06-20T01:44:46.759Z,29.70
2019-06-20T01:47:16.758Z,29.23
2019-06-20T01:49:46.775Z,30.72
2019-06-20T01:52:16.747Z,28.95
2019-06-20T01:54:46.840Z,31.25
2019-06-20T01:57:16.750Z,30.32
2019-06-20T01:59:46.741Z,30.72
2019-06-20T02:02:16.794Z,30.48
2019-06-20T02:04:46.660Z,31.70
2019-06-20T02:07:16.875Z,30.70
2019-06-20T02:09:47.331Z,32.90
2019-06-20T02:12:17.636Z,30.65
2019-06-20T02:14:47.960Z,31.30
2019-06-20T02:17:18.284Z,30.85
2019-06-20T02:19:49.017Z,30.95
2019-06-20T02:22:19.345Z,31.00
2019-06-20T02:24:49.358Z,29.30
2019-06-20T02:27:20.203Z,30.97
2019-06-20T02:29:50.195Z,30.55
2019-06-20T02:32:20.011Z,30.20
2019-06-20T02:34:50.053Z,30.75
2019-06-20T02:37:20.031Z,29.30
2019-06-20T02:39:50.574Z,29.40
2019-06-20T02:42:20.472Z,29.70
2019-06-20T02:44:51.005Z,30.23
2019-06-20T02:47:20.827Z,30.80
2019-06-20T02:49:50.831Z,29.45
2019-06-20T02:52:20.876Z,30.32
2019-06-20T02:54:50.887Z,29.30
2019-06-20T02:57:20.775Z,29.27
2019-06-20T02:59:50.600Z,29.90
2019-06-20T03:02:20.542Z,30.00
2019-06-20T03:04:50.480Z,30.00
2019-06-20T03:07:20.376Z,29.75
2019-06-20T03:09:50.316Z,30.20
2019-06-20T03:12:20.183Z,31.12
2019-06-20T03:14:50.209Z,30.82
2019-06-20T03:17:20.263Z,30.88
2019-06-20T03:19:50.186Z,31.05
2019-06-20T03:22:20.241Z,30.85
2019-06-20T03:24:50.065Z,30.52
2019-06-20T03:27:21.017Z,30.68
2019-06-20T03:29:51.123Z,30.10
2019-06-20T03:32:21.173Z,31.90
2019-06-20T03:34:51.036Z,31.68
2019-06-20T03:37:20.981Z,30.20
2019-06-20T03:39:51.314Z,30.12
2019-06-20T03:42:21.226Z,29.42
2019-06-20T03:45:01.545Z,29.63
2019-06-20T03:47:22.718Z,29.12
2019-06-20T03:49:52.685Z,29.52
2019-06-20T03:52:22.765Z,31.12
2019-06-20T03:54:52.607Z,29.60
2019-06-20T03:57:22.669Z,29.40
2019-06-20T03:59:52.511Z,29.45
2019-06-20T04:02:23.756Z,29.80
2019-06-20T04:04:54.042Z,31.33
2019-06-20T04:07:24.112Z,30.15
2019-06-20T04:09:54.427Z,28.83
2019-06-20T04:12:24.379Z,30.48
2019-06-20T04:14:54.295Z,30.88
2019-06-20T04:17:24.234Z,31.00
2019-06-20T04:19:54.530Z,31.35
2019-06-20T04:22:24.579Z,31.60
2019-06-20T04:24:55.899Z,29.60
2019-06-20T04:27:25.883Z,30.48
2019-06-20T04:29:55.894Z,30.77
2019-06-20T04:32:25.955Z,32.33
2019-06-20T04:34:55.976Z,31.42
2019-06-20T04:37:25.873Z,31.50
2019-06-20T04:39:56.129Z,31.27
2019-06-20T04:42:26.763Z,31.62
2019-06-20T04:44:58.224Z,32.33
2019-06-20T04:47:28.273Z,31.05
2019-06-20T04:49:58.225Z,29.07
2019-06-20T04:52:28.216Z,30.45
2019-06-20T04:54:59.333Z,30.50
2019-06-20T04:57:29.229Z,29.60
2019-06-20T05:00:02.576Z,30.65
2019-06-20T05:02:34.418Z,31.87
2019-06-20T05:05:06.758Z,31.33
2019-06-20T05:07:37.237Z,29.92
2019-06-20T05:10:08.164Z,29.75
2019-06-20T05:12:38.491Z,28.80
2019-06-20T05:15:08.827Z,29.18
2019-06-20T05:17:39.143Z,28.05
2019-06-20T05:20:09.872Z,27.25
2019-06-20T05:22:39.988Z,26.80
2019-06-20T05:25:11.954Z,25.97
2019-06-20T05:27:42.486Z,23.87
2019-06-20T05:30:13.090Z,22.62
2019-06-20T05:32:43.338Z,22.80
2019-06-20T05:35:15.113Z,23.05
2019-06-20T05:37:45.215Z,22.35
2019-06-20T05:40:17.062Z,22.45
2019-06-20T05:42:47.920Z,22.85
2019-06-20T05:45:19.469Z,22.70
2019-06-20T05:47:49.932Z,21.55
2019-06-20T05:50:20.524Z,22.95
2019-06-20T05:52:50.844Z,23.20
2019-06-20T05:55:20.834Z,24.12
2019-06-20T05:57:50.761Z,22.77
2019-06-20T06:00:22.144Z,24.57
2019-06-20T06:02:52.171Z,22.70
2019-06-20T06:05:22.049Z,23.47
2019-06-20T06:07:52.581Z,21.48
2019-06-20T06:10:23.245Z,21.90
2019-06-20T06:12:53.948Z,23.40
2019-06-20T06:15:24.861Z,23.18
2019-06-20T06:17:55.064Z,21.93
2019-06-20T06:20:25.098Z,21.75
2019-06-20T06:22:54.968Z,21.57
2019-06-20T06:25:25.060Z,20.95
2019-06-20T06:27:55.795Z,20.27
2019-06-20T06:30:25.911Z,20.60
2019-06-20T06:32:56.444Z,21.12
2019-06-20T06:35:26.757Z,20.23
2019-06-20T06:37:56.638Z,20.50
2019-06-20T06:40:26.770Z,21.20
2019-06-20T06:42:57.114Z,20.55
2019-06-20T06:45:28.458Z,19.45
2019-06-20T06:47:59.197Z,19.55
2019-06-20T06:50:29.721Z,20.10
2019-06-20T06:53:00.082Z,19.48
2019-06-20T06:55:30.573Z,19.62
2019-06-20T06:58:00.924Z,19.75
2019-06-20T07:00:31.346Z,18.65
2019-06-20T07:03:01.857Z,20.32
2019-06-20T07:05:32.695Z,19.20
2019-06-20T07:08:03.016Z,19.70
2019-06-20T07:10:33.338Z,19.07
2019-06-20T07:13:03.673Z,19.12
2019-06-20T07:15:34.395Z,19.57
2019-06-20T07:18:05.536Z,18.77
2019-06-20T07:20:35.555Z,19.42
2019-06-20T07:23:05.643Z,19.73
2019-06-20T07:25:36.507Z,18.98
2019-06-20T07:28:07.243Z,20.12
2019-06-20T07:30:37.359Z,19.30
2019-06-20T07:33:07.484Z,17.45
2019-06-20T07:35:41.646Z,20.17
2019-06-20T07:38:10.175Z,18.98
2019-06-20T07:40:40.912Z,19.12
2019-06-20T07:43:11.454Z,18.98
2019-06-20T07:45:42.879Z,18.65
2019-06-20T07:48:13.516Z,19.02
2019-06-20T07:50:43.589Z,19.10
2019-06-20T07:53:13.958Z,17.42
2019-06-20T07:55:44.077Z,18.75
2019-06-20T07:58:14.261Z,18.55
2019-06-20T08:00:44.574Z,18.37
2019-06-20T08:03:15.644Z,18.48
2019-06-20T08:05:45.987Z,19.37
2019-06-20T08:08:16.522Z,19.15
2019-06-20T08:10:47.258Z,17.67
2019-06-20T08:13:18.188Z,18.82
2019-06-20T08:15:48.511Z,17.57
2019-06-20T08:18:19.084Z,19.85
2019-06-20T08:20:50.085Z,18.02
2019-06-20T08:23:22.145Z,19.40
2019-06-20T08:25:52.464Z,18.70
2019-06-20T08:28:22.589Z,18.60
2019-06-20T08:30:53.120Z,18.80
2019-06-20T08:33:23.441Z,18.17
2019-06-20T08:35:53.968Z,17.55
2019-06-20T08:38:24.051Z,17.57
2019-06-20T08:40:54.094Z,17.75
2019-06-20T08:43:24.043Z,16.45
2019-06-20T08:45:56.126Z,17.20
2019-06-20T08:48:25.642Z,15.55
2019-06-20T08:50:58.200Z,15.08
2019-06-20T08:53:28.491Z,15.28
2019-06-20T08:55:59.374Z,14.18
2019-06-20T08:58:30.409Z,14.40
2019-06-20T09:03:32.174Z,14.68
2019-06-20T09:08:32.003Z,13.70
2019-06-20T09:11:02.091Z,14.05
2019-06-20T09:13:32.308Z,12.68
2019-06-20T09:16:03.141Z,12.43
2019-06-20T09:18:33.982Z,13.13
2019-06-20T09:21:04.343Z,13.83
2019-06-20T09:23:35.745Z,13.05
2019-06-20T09:26:05.978Z,12.70
2019-06-20T09:28:36.301Z,15.55
2019-06-20T09:31:07.035Z,12.28
2019-06-20T09:33:37.362Z,12.95
2019-06-20T09:36:08.156Z,12.15
2019-06-20T09:38:38.617Z,12.60
2019-06-20T09:41:09.323Z,12.45
2019-06-20T09:43:40.294Z,11.90
2019-06-20T09:46:12.453Z,12.53
2019-06-20T09:48:43.182Z,11.43
2019-06-20T09:51:15.566Z,12.50
2019-06-20T09:53:45.888Z,12.15
2019-06-20T09:56:16.418Z,12.40
2019-06-20T09:58:47.858Z,12.10
2019-06-20T10:01:18.738Z,13.15
2019-06-20T10:03:50.653Z,13.10
2019-06-20T10:06:20.987Z,12.75
2019-06-20T10:08:52.270Z,13.83
2019-06-20T10:11:22.866Z,13.60
2019-06-20T10:13:54.280Z,13.68
2019-06-20T10:16:24.750Z,13.25
2019-06-20T10:18:56.573Z,13.95
2019-06-20T10:21:27.244Z,14.58
2019-06-20T10:23:58.188Z,13.68
2019-06-20T10:26:28.395Z,14.05
2019-06-20T10:28:59.433Z,13.68
2019-06-20T10:31:29.959Z,14.65
2019-06-20T10:34:00.487Z,14.07
2019-06-20T10:36:30.816Z,14.73
2019-06-20T10:39:01.351Z,13.50
2019-06-20T10:41:32.075Z,13.25
2019-06-20T10:44:03.015Z,13.45
2019-06-20T10:46:33.542Z,12.78
2019-06-20T10:49:05.295Z,12.93
2019-06-20T10:51:37.165Z,13.80
2019-06-20T10:54:07.794Z,13.55
2019-06-20T10:56:38.320Z,13.88
2019-06-20T10:59:08.709Z,14.35
2019-06-20T11:01:39.880Z,12.95
2019-06-20T11:04:11.129Z,12.53
2019-06-20T11:06:41.673Z,12.35
2019-06-20T11:09:12.805Z,14.47
2019-06-20T11:11:43.073Z,13.53
2019-06-20T11:14:13.467Z,13.93
2019-06-20T11:16:45.116Z,14.53
2019-06-20T11:19:15.384Z,14.07
2019-06-20T11:21:45.736Z,13.95
2019-06-20T11:24:15.892Z,13.90
2019-06-20T11:26:46.082Z,14.07
2019-06-20T11:29:16.139Z,14.30
2019-06-20T11:31:47.860Z,14.10
2019-06-20T11:34:17.840Z,13.15
2019-06-20T11:36:48.415Z,13.03
2019-06-20T11:39:18.853Z,13.50
2019-06-20T11:41:49.133Z,13.18
2019-06-20T11:44:19.381Z,13.28
2019-06-20T11:46:49.504Z,13.28
2019-06-20T11:49:20.033Z,13.40
2019-06-20T11:51:50.143Z,12.95
2019-06-20T11:54:20.475Z,13.60
2019-06-20T11:56:50.505Z,12.95
2019-06-20T11:59:20.367Z,12.90
2019-06-20T12:01:51.254Z,12.85
2019-06-20T12:04:21.979Z,12.93
2019-06-20T12:06:52.295Z,13.75
2019-06-20T12:09:22.620Z,13.50
2019-06-20T12:11:52.943Z,13.60
2019-06-20T12:14:22.921Z,13.50
2019-06-20T12:16:52.848Z,13.05
2019-06-20T12:19:23.302Z,12.60
2019-06-20T12:21:53.294Z,13.43
2019-06-20T12:24:24.153Z,13.80
2019-06-20T12:26:54.481Z,13.00
2019-06-20T12:29:25.020Z,13.83
2019-06-20T12:31:55.995Z,14.07
2019-06-20T12:34:26.885Z,14.00
2019-06-20T12:36:57.423Z,13.90
2019-06-20T12:39:27.782Z,13.30
2019-06-20T12:41:58.266Z,14.28
2019-06-20T12:44:28.196Z,14.23
2019-06-20T12:46:59.320Z,13.58
2019-06-20T12:49:29.954Z,14.90
2019-06-20T12:52:00.651Z,12.50
2019-06-20T12:54:32.110Z,11.12
2019-06-20T12:57:02.074Z,11.08
2019-06-20T12:59:32.055Z,10.03
2019-06-20T13:02:01.965Z,10.10
2019-06-20T13:04:32.070Z,9.80
2019-06-20T13:07:02.007Z,10.60
2019-06-20T13:09:32.642Z,9.98
2019-06-20T13:12:04.018Z,7.85
2019-06-20T13:14:33.874Z,7.35
2019-06-20T13:17:04.315Z,7.55
2019-06-20T13:19:34.476Z,6.90
2019-06-20T13:22:04.430Z,6.75
2019-06-20T13:24:34.582Z,6.75
2019-06-20T13:27:04.910Z,6.65
2019-06-20T13:29:35.444Z,7.28
2019-06-20T13:32:05.380Z,6.95
2019-06-20T13:34:35.652Z,7.12
2019-06-20T13:37:05.557Z,6.90
2019-06-20T13:39:35.423Z,5.90
2019-06-20T13:42:05.612Z,6.67
2019-06-20T13:44:35.951Z,7.20
2019-06-20T13:47:05.980Z,6.17
2019-06-20T13:49:35.969Z,8.45
2019-06-20T13:52:06.123Z,6.62
2019-06-20T13:54:35.963Z,6.92
2019-06-20T13:57:06.077Z,7.25
2019-06-20T13:59:36.457Z,7.03
2019-06-20T14:02:09.629Z,6.78
2019-06-20T14:04:42.862Z,7.33
2019-06-20T14:07:14.345Z,6.92
2019-06-20T14:09:44.675Z,7.40
2019-06-20T14:12:14.980Z,8.23
2019-06-20T14:14:45.816Z,7.85
2019-06-20T14:17:17.180Z,9.05
2019-06-20T14:19:49.818Z,9.65
2019-06-20T14:22:19.868Z,11.80
2019-06-20T14:24:50.826Z,10.20
2019-06-20T14:27:21.239Z,10.20
2019-06-20T14:29:53.244Z,11.25
2019-06-20T14:32:23.567Z,11.70
2019-06-20T14:34:54.328Z,12.35
2019-06-20T14:37:25.035Z,12.60
2019-06-20T14:39:55.092Z,12.45
2019-06-20T14:42:25.186Z,13.03
2019-06-20T14:44:55.249Z,12.00
2019-06-20T14:47:26.466Z,11.85
2019-06-20T14:49:56.502Z,14.55
2019-06-20T14:52:26.597Z,13.68
2019-06-20T14:54:56.499Z,15.65
2019-06-20T14:57:26.544Z,14.85
2019-06-20T14:59:56.496Z,12.98
2019-06-20T15:02:37.954Z,12.37
2019-06-20T15:04:58.109Z,13.25
2019-06-20T15:07:28.042Z,11.93
2019-06-20T15:09:58.079Z,12.37
2019-06-20T15:12:28.345Z,11.33
2019-06-20T15:14:58.315Z,12.23
2019-06-20T15:17:28.323Z,11.45
2019-06-20T15:19:58.289Z,13.88
2019-06-20T15:22:28.820Z,12.25
2019-06-20T15:24:59.142Z,13.20
2019-06-20T15:27:29.261Z,13.03
2019-06-20T15:30:00.013Z,13.15
2019-06-20T15:32:30.110Z,12.45
2019-06-20T15:35:01.866Z,12.60
2019-06-20T15:37:32.610Z,12.93
2019-06-20T15:40:03.752Z,14.28
2019-06-20T15:42:34.085Z,12.55
2019-06-20T15:45:06.850Z,13.13
2019-06-20T15:47:37.642Z,13.22
2019-06-20T15:50:09.845Z,12.65
2019-06-20T15:52:40.928Z,12.95
2019-06-20T15:55:11.037Z,9.65
2019-06-20T15:57:41.334Z,11.80
2019-06-20T16:00:12.845Z,12.07
2019-06-20T16:02:42.873Z,9.88
2019-06-20T16:05:17.633Z,12.07
2019-06-20T16:07:48.163Z,8.08
2019-06-20T16:10:18.667Z,7.97
2019-06-20T16:12:48.625Z,7.25
2019-06-20T16:15:23.279Z,7.95
2019-06-20T16:17:53.433Z,7.90
2019-06-20T16:20:23.438Z,9.28
2019-06-20T16:22:53.344Z,9.23
2019-06-20T16:25:23.296Z,8.65
2019-06-20T16:27:53.372Z,8.50
2019-06-20T16:30:24.929Z,8.18
2019-06-20T16:32:55.017Z,8.60
2019-06-20T16:35:24.934Z,8.40
2019-06-20T16:37:54.876Z,7.58
2019-06-20T16:40:39.819Z,7.25
2019-06-20T16:43:13.788Z,7.89
2019-06-20T16:45:43.859Z,7.55
2019-06-20T16:48:13.831Z,7.22
2019-06-20T16:50:43.882Z,7.70
2019-06-20T16:53:13.866Z,9.20
2019-06-20T16:55:43.716Z,7.33
2019-06-20T16:58:13.597Z,7.40
2019-06-20T17:00:43.770Z,7.75
2019-06-20T17:03:14.006Z,8.45
2019-06-20T17:05:44.946Z,10.28
2019-06-20T17:08:15.030Z,8.20
2019-06-20T17:10:44.962Z,8.40
2019-06-20T17:13:14.994Z,8.03
2019-06-20T17:15:44.858Z,8.05
2019-06-20T17:18:14.809Z,8.73
2019-06-20T17:20:44.745Z,8.55
2019-06-20T17:23:14.765Z,8.23
2019-06-20T17:25:45.185Z,7.55
2019-06-20T17:28:15.224Z,8.00
2019-06-20T17:30:45.159Z,8.23
2019-06-20T17:33:15.151Z,8.45
2019-06-20T17:35:45.056Z,7.40
2019-06-20T17:38:16.200Z,7.95
2019-06-20T17:40:47.901Z,8.10
2019-06-20T17:43:19.271Z,8.00
2019-06-20T17:45:49.318Z,8.40
2019-06-20T17:48:19.296Z,8.13
2019-06-20T17:50:49.218Z,8.88
2019-06-20T17:53:19.726Z,8.40
2019-06-20T17:55:49.774Z,9.00
2019-06-20T17:58:19.836Z,7.92
2019-06-20T18:00:49.730Z,7.97
2019-06-20T18:03:19.805Z,7.62
2019-06-20T18:05:49.728Z,8.28
2019-06-20T18:08:19.679Z,8.60
2019-06-20T18:10:51.028Z,7.92
2019-06-20T18:13:21.038Z,8.58
2019-06-20T18:15:50.965Z,9.18
2019-06-20T18:18:20.976Z,9.15
2019-06-20T18:20:50.999Z,8.80
2019-06-20T18:23:20.973Z,9.33
2019-06-20T18:25:50.870Z,8.48
2019-06-20T18:28:20.949Z,8.35
2019-06-20T18:30:51.272Z,8.18
2019-06-20T18:33:21.267Z,8.73
2019-06-20T18:35:52.718Z,10.43
2019-06-20T18:38:22.704Z,9.55
2019-06-20T18:40:53.132Z,9.85
2019-06-20T18:43:23.161Z,9.15
2019-06-20T18:45:53.252Z,12.18
2019-06-20T18:48:23.415Z,14.23
2019-06-20T18:50:53.326Z,9.20
2019-06-20T18:53:23.246Z,9.43
2019-06-20T18:55:53.371Z,10.55
2019-06-20T18:58:23.473Z,12.13
2019-06-20T19:00:53.483Z,14.98
2019-06-20T19:03:23.365Z,19.50
2019-06-20T19:05:53.369Z,15.10
2019-06-20T19:08:23.473Z,15.48
2019-06-20T19:10:53.755Z,15.45
2019-06-20T19:13:25.307Z,15.08
2019-06-20T19:15:55.207Z,25.57
2019-06-20T19:18:25.483Z,11.63
2019-06-20T19:20:56.801Z,24.27
2019-06-20T19:23:35.976Z,15.58
2019-06-20T19:26:05.950Z,15.25
2019-06-20T19:28:36.186Z,14.78
2019-06-20T19:31:05.999Z,12.45
2019-06-20T19:33:35.857Z,12.82
2019-06-20T19:36:06.304Z,12.53
2019-06-20T19:38:36.176Z,27.00
2019-06-20T19:41:07.058Z,14.00
2019-06-20T19:43:37.168Z,12.95
2019-06-20T19:46:07.334Z,12.85
2019-06-20T19:48:37.483Z,14.00
2019-06-20T19:51:07.518Z,13.22
2019-06-20T19:53:37.557Z,13.25
2019-06-20T19:56:07.643Z,12.45
2019-06-20T19:58:37.604Z,12.40
2019-06-20T20:01:07.581Z,13.20
2019-06-20T20:03:37.508Z,13.30
2019-06-20T20:06:07.562Z,13.80
2019-06-20T20:08:37.501Z,13.30
2019-06-20T20:11:07.585Z,13.08
2019-06-20T20:13:37.509Z,12.68
2019-06-20T20:16:07.494Z,14.23
2019-06-20T20:18:37.414Z,13.30
2019-06-20T20:21:07.402Z,13.78
2019-06-20T20:23:37.261Z,13.75
2019-06-20T20:26:09.009Z,14.40
2019-06-20T20:28:38.885Z,13.65
2019-06-20T20:31:08.973Z,13.30
2019-06-20T20:33:58.484Z,13.55
2019-06-20T20:36:28.850Z,14.15
2019-06-20T20:38:58.849Z,14.25
2019-06-20T20:41:28.906Z,14.47
2019-06-20T20:43:58.880Z,15.00
2019-06-20T20:46:28.787Z,14.78
2019-06-20T20:48:58.699Z,15.60
2019-06-20T20:51:28.683Z,14.15
2019-06-20T20:53:58.765Z,14.80
2019-06-20T20:56:28.776Z,14.60
2019-06-20T20:58:58.814Z,14.13
2019-06-20T21:01:49.416Z,15.13
2019-06-20T21:04:19.487Z,14.38
2019-06-20T21:06:51.343Z,15.03
2019-06-20T21:09:21.204Z,15.85
2019-06-20T21:11:51.159Z,15.68
2019-06-20T21:14:21.151Z,15.65
2019-06-20T21:16:51.241Z,16.07
2019-06-20T21:19:21.158Z,15.98
2019-06-20T21:21:51.149Z,15.43
2019-06-20T21:24:21.059Z,15.85
2019-06-20T21:26:51.043Z,15.95
2019-06-20T21:29:20.985Z,15.98
2019-06-20T21:31:50.987Z,16.50
2019-06-20T21:34:21.321Z,17.00
2019-06-20T21:36:51.204Z,16.17
2019-06-20T21:39:21.299Z,16.10
2019-06-20T21:41:51.108Z,15.70
2019-06-20T21:44:21.211Z,16.93
2019-06-20T21:46:51.121Z,14.95
2019-06-20T21:49:20.974Z,17.30
2019-06-20T21:51:51.029Z,16.73
2019-06-20T21:54:20.889Z,17.82
2019-06-20T21:56:50.730Z,16.57
2019-06-20T21:59:20.735Z,19.02
2019-06-20T22:01:50.575Z,26.85
2019-06-20T22:04:20.573Z,37.48
2019-06-20T22:06:50.992Z,151.68
2019-06-20T22:09:20.872Z,103.58
2019-06-20T22:11:50.785Z,123.55
2019-06-20T22:14:20.741Z,126.87
2019-06-20T22:16:50.695Z,102.53
2019-06-20T22:19:20.653Z,71.28
2019-06-20T22:21:50.607Z,84.50
2019-06-20T22:24:20.611Z,71.70
2019-06-20T22:26:50.559Z,62.23
2019-06-20T22:29:20.595Z,48.73
2019-06-20T22:31:50.535Z,46.18
2019-06-20T22:34:20.481Z,41.02
2019-06-20T22:36:50.781Z,37.93
2019-06-20T22:39:20.817Z,32.78
2019-06-20T22:41:50.869Z,28.98
2019-06-20T22:44:20.894Z,26.60
2019-06-20T22:46:50.766Z,26.77
2019-06-20T22:49:20.857Z,23.52
2019-06-20T22:51:50.793Z,24.25
2019-06-20T22:54:20.781Z,23.32
2019-06-20T22:56:50.644Z,21.40
2019-06-20T22:59:20.687Z,20.68
2019-06-20T23:01:50.661Z,22.22
2019-06-20T23:04:20.809Z,22.32
2019-06-20T23:06:56.235Z,23.00
2019-06-20T23:09:22.329Z,21.75
2019-06-20T23:11:52.354Z,21.50
2019-06-20T23:14:22.207Z,22.17
2019-06-20T23:16:52.113Z,22.58
2019-06-20T23:19:22.063Z,21.85
2019-06-20T23:21:52.078Z,22.67
2019-06-20T23:24:22.130Z,22.13
2019-06-20T23:26:52.151Z,23.55
2019-06-20T23:29:24.793Z,24.15
2019-06-20T23:31:55.825Z,24.32
2019-06-20T23:34:25.645Z,25.57
2019-06-20T23:37:08.696Z,23.98
2019-06-20T23:39:28.448Z,23.00
2019-06-20T23:41:58.809Z,22.52
2019-06-20T23:44:28.775Z,22.15
2019-06-20T23:46:58.735Z,21.10
2019-06-20T23:49:28.569Z,21.33
2019-06-20T23:52:00.165Z,22.13
2019-06-20T23:54:30.112Z,22.05
2019-06-20T23:56:59.990Z,22.15
2019-06-20T23:59:29.980Z,22.45
